sensor_id;sensor_type;location;lat;lon;timestamp;temperature;humidity
7516;DHT22;3799;47.184;8.538;2023-05-10T00:02:02;13.50;99.90
7516;DHT22;3799;47.184;8.538;2023-05-10T00:04:32;13.60;99.90
7516;DHT22;3799;47.184;8.538;2023-05-10T00:06:59;13.50;99.90
7516;DHT22;3799;47.184;8.538;2023-05-10T00:09:26;13.60;99.90
7516;DHT22;3799;47.184;8.538;2023-05-10T00:11:53;13.70;99.90
7516;DHT22;3799;47.184;8.538;2023-05-10T00:14:21;13.70;99.90
7516;DHT22;3799;47.184;8.538;2023-05-10T00:16:48;13.70;99.90
7516;DHT22;3799;47.184;8.538;2023-05-10T00:19:15;13.50;99.90
7516;DHT22;3799;47.184;8.538;2023-05-10T00:21:43;13.50;99.90
7516;DHT22;3799;47.184;8.538;2023-05-10T00:24:11;13.80;99.90
7516;DHT22;3799;47.184;8.538;2023-05-10T00:26:46;13.70;99.90
7516;DHT22;3799;47.184;8.538;2023-05-10T00:29:13;13.60;99.90
7516;DHT22;3799;47.184;8.538;2023-05-10T00:31:40;13.70;99.90
7516;DHT22;3799;47.184;8.538;2023-05-10T00:34:08;13.60;99.90
7516;DHT22;3799;47.184;8.538;2023-05-10T00:36:35;13.40;99.90
7516;DHT22;3799;47.184;8.538;2023-05-10T00:39:02;13.50;99.90
7516;DHT22;3799;47.184;8.538;2023-05-10T00:41:30;13.30;99.90
7516;DHT22;3799;47.184;8.538;2023-05-10T00:44:00;13.20;99.90
7516;DHT22;3799;47.184;8.538;2023-05-10T00:46:29;13.30;99.90
7516;DHT22;3799;47.184;8.538;2023-05-10T00:48:56;13.10;99.90
7516;DHT22;3799;47.184;8.538;2023-05-10T00:51:24;13.40;99.90
7516;DHT22;3799;47.184;8.538;2023-05-10T00:53:52;13.50;99.90
7516;DHT22;3799;47.184;8.538;2023-05-10T00:56:19;13.20;99.90
7516;DHT22;3799;47.184;8.538;2023-05-10T00:58:50;13.50;99.90
7516;DHT22;3799;47.184;8.538;2023-05-10T01:01:17;13.30;99.90
7516;DHT22;3799;47.184;8.538;2023-05-10T01:03:46;13.40;99.90
7516;DHT22;3799;47.184;8.538;2023-05-10T01:06:13;13.00;99.90
7516;DHT22;3799;47.184;8.538;2023-05-10T01:08:41;13.20;99.90
7516;DHT22;3799;47.184;8.538;2023-05-10T01:11:09;13.00;99.90
7516;DHT22;3799;47.184;8.538;2023-05-10T01:13:39;13.30;99.90
7516;DHT22;3799;47.184;8.538;2023-05-10T01:16:09;13.30;99.90
7516;DHT22;3799;47.184;8.538;2023-05-10T01:18:39;13.20;99.90
7516;DHT22;3799;47.184;8.538;2023-05-10T01:24:07;13.30;99.90
7516;DHT22;3799;47.184;8.538;2023-05-10T01:26:41;13.30;99.90
7516;DHT22;3799;47.184;8.538;2023-05-10T01:32:45;13.30;99.90
7516;DHT22;3799;47.184;8.538;2023-05-10T01:40:39;13.40;99.90
7516;DHT22;3799;47.184;8.538;2023-05-10T01:43:13;13.30;99.90
7516;DHT22;3799;47.184;8.538;2023-05-10T01:46:07;13.20;99.90
7516;DHT22;3799;47.184;8.538;2023-05-10T01:48:41;13.30;99.90
7516;DHT22;3799;47.184;8.538;2023-05-10T01:51:21;13.30;99.90
7516;DHT22;3799;47.184;8.538;2023-05-10T01:53:54;13.40;99.90
7516;DHT22;3799;47.184;8.538;2023-05-10T01:56:26;13.20;99.90
7516;DHT22;3799;47.184;8.538;2023-05-10T01:58:55;13.30;99.90
7516;DHT22;3799;47.184;8.538;2023-05-10T02:01:22;13.40;99.90
7516;DHT22;3799;47.184;8.538;2023-05-10T02:03:51;13.40;99.90
7516;DHT22;3799;47.184;8.538;2023-05-10T02:06:21;13.30;99.90
7516;DHT22;3799;47.184;8.538;2023-05-10T02:08:50;13.50;99.90
7516;DHT22;3799;47.184;8.538;2023-05-10T02:11:19;13.50;99.90
7516;DHT22;3799;47.184;8.538;2023-05-10T02:13:49;13.60;99.90
7516;DHT22;3799;47.184;8.538;2023-05-10T02:16:18;13.50;99.90
7516;DHT22;3799;47.184;8.538;2023-05-10T02:18:47;13.50;99.90
7516;DHT22;3799;47.184;8.538;2023-05-10T02:21:15;13.60;99.90
7516;DHT22;3799;47.184;8.538;2023-05-10T02:23:44;13.30;99.90
7516;DHT22;3799;47.184;8.538;2023-05-10T02:26:12;13.30;99.90
7516;DHT22;3799;47.184;8.538;2023-05-10T02:28:42;13.30;99.90
7516;DHT22;3799;47.184;8.538;2023-05-10T02:31:10;13.10;99.90
7516;DHT22;3799;47.184;8.538;2023-05-10T02:33:41;13.40;99.90
7516;DHT22;3799;47.184;8.538;2023-05-10T02:36:10;13.10;99.90
7516;DHT22;3799;47.184;8.538;2023-05-10T02:38:38;13.10;99.90
7516;DHT22;3799;47.184;8.538;2023-05-10T02:41:07;13.30;99.90
7516;DHT22;3799;47.184;8.538;2023-05-10T02:43:37;12.90;99.90
7516;DHT22;3799;47.184;8.538;2023-05-10T02:46:05;13.10;99.90
7516;DHT22;3799;47.184;8.538;2023-05-10T02:48:32;13.10;99.90
7516;DHT22;3799;47.184;8.538;2023-05-10T02:51:05;13.10;99.90
7516;DHT22;3799;47.184;8.538;2023-05-10T02:53:36;13.20;99.90
7516;DHT22;3799;47.184;8.538;2023-05-10T02:56:25;13.30;99.90
7516;DHT22;3799;47.184;8.538;2023-05-10T02:58:55;13.40;99.90
7516;DHT22;3799;47.184;8.538;2023-05-10T03:01:23;13.20;99.90
7516;DHT22;3799;47.184;8.538;2023-05-10T03:03:50;13.30;99.90
7516;DHT22;3799;47.184;8.538;2023-05-10T03:06:18;13.30;99.90
7516;DHT22;3799;47.184;8.538;2023-05-10T03:08:45;13.10;99.90
7516;DHT22;3799;47.184;8.538;2023-05-10T03:14:14;13.30;99.90
7516;DHT22;3799;47.184;8.538;2023-05-10T03:17:00;13.20;99.90
7516;DHT22;3799;47.184;8.538;2023-05-10T03:19:42;13.00;99.90
7516;DHT22;3799;47.184;8.538;2023-05-10T03:22:13;13.20;99.90
7516;DHT22;3799;47.184;8.538;2023-05-10T03:24:46;13.30;99.90
7516;DHT22;3799;47.184;8.538;2023-05-10T03:27:15;13.50;99.90
7516;DHT22;3799;47.184;8.538;2023-05-10T03:29:43;13.20;99.90
7516;DHT22;3799;47.184;8.538;2023-05-10T03:32:14;13.20;99.90
7516;DHT22;3799;47.184;8.538;2023-05-10T03:34:42;13.60;99.90
7516;DHT22;3799;47.184;8.538;2023-05-10T03:37:15;13.20;99.90
7516;DHT22;3799;47.184;8.538;2023-05-10T03:39:42;13.20;99.90
7516;DHT22;3799;47.184;8.538;2023-05-10T03:42:10;13.40;99.90
7516;DHT22;3799;47.184;8.538;2023-05-10T03:44:39;13.20;99.90
7516;DHT22;3799;47.184;8.538;2023-05-10T03:47:07;13.20;99.90
7516;DHT22;3799;47.184;8.538;2023-05-10T03:49:34;13.30;99.90
7516;DHT22;3799;47.184;8.538;2023-05-10T03:52:02;13.40;99.90
7516;DHT22;3799;47.184;8.538;2023-05-10T03:54:29;13.30;99.90
7516;DHT22;3799;47.184;8.538;2023-05-10T03:56:56;13.00;99.90
7516;DHT22;3799;47.184;8.538;2023-05-10T03:59:24;13.40;99.90
7516;DHT22;3799;47.184;8.538;2023-05-10T04:01:51;13.20;99.90
7516;DHT22;3799;47.184;8.538;2023-05-10T04:04:18;13.30;99.90
7516;DHT22;3799;47.184;8.538;2023-05-10T04:06:47;13.20;99.90
7516;DHT22;3799;47.184;8.538;2023-05-10T04:09:15;13.20;99.90
7516;DHT22;3799;47.184;8.538;2023-05-10T04:11:43;13.50;99.90
7516;DHT22;3799;47.184;8.538;2023-05-10T04:14:11;13.40;99.90
7516;DHT22;3799;47.184;8.538;2023-05-10T04:16:38;13.20;99.90
7516;DHT22;3799;47.184;8.538;2023-05-10T04:19:06;13.30;99.90
7516;DHT22;3799;47.184;8.538;2023-05-10T04:21:33;13.30;99.90
7516;DHT22;3799;47.184;8.538;2023-05-10T04:24:01;13.50;99.90
7516;DHT22;3799;47.184;8.538;2023-05-10T04:26:28;13.60;99.90
7516;DHT22;3799;47.184;8.538;2023-05-10T04:28:56;13.20;99.90
7516;DHT22;3799;47.184;8.538;2023-05-10T04:31:23;13.50;99.90
7516;DHT22;3799;47.184;8.538;2023-05-10T04:33:51;13.60;99.90
7516;DHT22;3799;47.184;8.538;2023-05-10T04:36:19;13.30;99.90
7516;DHT22;3799;47.184;8.538;2023-05-10T04:38:49;13.40;99.90
7516;DHT22;3799;47.184;8.538;2023-05-10T04:41:16;13.40;99.90
7516;DHT22;3799;47.184;8.538;2023-05-10T04:43:44;13.30;99.90
7516;DHT22;3799;47.184;8.538;2023-05-10T04:46:11;13.20;99.90
7516;DHT22;3799;47.184;8.538;2023-05-10T04:48:39;13.10;99.90
7516;DHT22;3799;47.184;8.538;2023-05-10T04:51:08;12.80;99.90
7516;DHT22;3799;47.184;8.538;2023-05-10T04:53:36;13.00;99.90
7516;DHT22;3799;47.184;8.538;2023-05-10T04:56:04;12.80;99.90
7516;DHT22;3799;47.184;8.538;2023-05-10T04:58:31;12.80;99.90
7516;DHT22;3799;47.184;8.538;2023-05-10T05:01:05;12.60;99.90
7516;DHT22;3799;47.184;8.538;2023-05-10T05:03:33;12.50;99.90
7516;DHT22;3799;47.184;8.538;2023-05-10T05:06:01;12.60;99.90
7516;DHT22;3799;47.184;8.538;2023-05-10T05:08:31;12.60;99.90
7516;DHT22;3799;47.184;8.538;2023-05-10T05:10:58;12.50;99.90
7516;DHT22;3799;47.184;8.538;2023-05-10T05:13:26;12.30;99.90
7516;DHT22;3799;47.184;8.538;2023-05-10T05:15:53;12.70;99.90
7516;DHT22;3799;47.184;8.538;2023-05-10T05:18:21;12.60;99.90
7516;DHT22;3799;47.184;8.538;2023-05-10T05:20:49;12.70;99.90
7516;DHT22;3799;47.184;8.538;2023-05-10T05:23:16;12.40;99.90
7516;DHT22;3799;47.184;8.538;2023-05-10T05:25:43;12.80;99.90
7516;DHT22;3799;47.184;8.538;2023-05-10T05:28:11;12.80;99.90
7516;DHT22;3799;47.184;8.538;2023-05-10T05:30:41;12.60;99.90
7516;DHT22;3799;47.184;8.538;2023-05-10T05:33:08;12.70;99.90
7516;DHT22;3799;47.184;8.538;2023-05-10T05:35:35;12.60;99.90
7516;DHT22;3799;47.184;8.538;2023-05-10T05:38:02;12.60;99.90
7516;DHT22;3799;47.184;8.538;2023-05-10T05:40:30;12.60;99.90
7516;DHT22;3799;47.184;8.538;2023-05-10T05:42:57;12.60;99.90
7516;DHT22;3799;47.184;8.538;2023-05-10T05:45:25;12.60;99.90
7516;DHT22;3799;47.184;8.538;2023-05-10T05:47:52;12.60;99.90
7516;DHT22;3799;47.184;8.538;2023-05-10T05:50:19;12.70;99.90
7516;DHT22;3799;47.184;8.538;2023-05-10T05:52:46;12.50;99.90
7516;DHT22;3799;47.184;8.538;2023-05-10T05:55:14;12.40;99.90
7516;DHT22;3799;47.184;8.538;2023-05-10T05:57:41;12.60;99.90
7516;DHT22;3799;47.184;8.538;2023-05-10T06:00:08;12.40;99.90
7516;DHT22;3799;47.184;8.538;2023-05-10T06:02:36;12.50;99.90
7516;DHT22;3799;47.184;8.538;2023-05-10T06:05:04;12.60;99.90
7516;DHT22;3799;47.184;8.538;2023-05-10T06:07:31;12.50;99.90
7516;DHT22;3799;47.184;8.538;2023-05-10T06:09:58;12.50;99.90
7516;DHT22;3799;47.184;8.538;2023-05-10T06:12:25;12.40;99.90
7516;DHT22;3799;47.184;8.538;2023-05-10T06:14:53;12.60;99.90
7516;DHT22;3799;47.184;8.538;2023-05-10T06:17:20;12.50;99.90
7516;DHT22;3799;47.184;8.538;2023-05-10T06:19:48;12.70;99.90
7516;DHT22;3799;47.184;8.538;2023-05-10T06:22:16;12.60;99.90
7516;DHT22;3799;47.184;8.538;2023-05-10T06:24:43;12.70;99.90
7516;DHT22;3799;47.184;8.538;2023-05-10T06:27:10;12.50;99.90
7516;DHT22;3799;47.184;8.538;2023-05-10T06:29:37;12.80;99.90
7516;DHT22;3799;47.184;8.538;2023-05-10T06:32:05;13.00;99.90
7516;DHT22;3799;47.184;8.538;2023-05-10T06:34:32;13.20;99.90
7516;DHT22;3799;47.184;8.538;2023-05-10T06:36:59;13.00;99.90
7516;DHT22;3799;47.184;8.538;2023-05-10T06:39:27;13.30;99.90
7516;DHT22;3799;47.184;8.538;2023-05-10T06:41:56;13.00;99.90
7516;DHT22;3799;47.184;8.538;2023-05-10T06:44:23;13.30;99.90
7516;DHT22;3799;47.184;8.538;2023-05-10T06:46:51;13.10;99.90
7516;DHT22;3799;47.184;8.538;2023-05-10T06:49:19;13.30;99.90
7516;DHT22;3799;47.184;8.538;2023-05-10T06:51:46;13.10;99.90
7516;DHT22;3799;47.184;8.538;2023-05-10T06:54:13;13.10;99.90
7516;DHT22;3799;47.184;8.538;2023-05-10T06:56:41;12.90;99.90
7516;DHT22;3799;47.184;8.538;2023-05-10T06:59:08;12.80;99.90
7516;DHT22;3799;47.184;8.538;2023-05-10T07:01:36;12.70;99.90
7516;DHT22;3799;47.184;8.538;2023-05-10T07:04:03;12.60;99.90
7516;DHT22;3799;47.184;8.538;2023-05-10T07:06:31;12.70;99.90
7516;DHT22;3799;47.184;8.538;2023-05-10T07:09:00;12.60;99.90
7516;DHT22;3799;47.184;8.538;2023-05-10T07:11:27;12.50;99.90
7516;DHT22;3799;47.184;8.538;2023-05-10T07:13:55;12.70;99.90
7516;DHT22;3799;47.184;8.538;2023-05-10T07:16:22;12.50;99.90
7516;DHT22;3799;47.184;8.538;2023-05-10T07:18:50;12.70;99.90
7516;DHT22;3799;47.184;8.538;2023-05-10T07:21:18;12.50;99.90
7516;DHT22;3799;47.184;8.538;2023-05-10T07:23:45;12.60;99.90
7516;DHT22;3799;47.184;8.538;2023-05-10T07:26:13;12.70;99.90
7516;DHT22;3799;47.184;8.538;2023-05-10T07:28:42;12.90;99.90
7516;DHT22;3799;47.184;8.538;2023-05-10T07:31:09;12.80;99.90
7516;DHT22;3799;47.184;8.538;2023-05-10T07:33:37;12.90;99.90
7516;DHT22;3799;47.184;8.538;2023-05-10T07:36:04;13.10;99.90
7516;DHT22;3799;47.184;8.538;2023-05-10T07:38:32;12.90;99.90
7516;DHT22;3799;47.184;8.538;2023-05-10T07:40:59;13.10;99.90
7516;DHT22;3799;47.184;8.538;2023-05-10T07:43:26;13.10;99.90
7516;DHT22;3799;47.184;8.538;2023-05-10T07:45:54;12.70;99.90
7516;DHT22;3799;47.184;8.538;2023-05-10T07:48:24;12.90;99.90
7516;DHT22;3799;47.184;8.538;2023-05-10T07:50:52;13.00;99.90
7516;DHT22;3799;47.184;8.538;2023-05-10T07:53:20;12.90;99.90
7516;DHT22;3799;47.184;8.538;2023-05-10T07:55:56;13.00;99.90
7516;DHT22;3799;47.184;8.538;2023-05-10T07:58:25;13.00;99.90
7516;DHT22;3799;47.184;8.538;2023-05-10T08:00:53;13.00;99.90
7516;DHT22;3799;47.184;8.538;2023-05-10T08:03:20;12.90;99.90
7516;DHT22;3799;47.184;8.538;2023-05-10T08:05:49;12.80;99.90
7516;DHT22;3799;47.184;8.538;2023-05-10T08:08:24;12.80;99.90
7516;DHT22;3799;47.184;8.538;2023-05-10T08:10:52;12.70;99.90
7516;DHT22;3799;47.184;8.538;2023-05-10T08:13:19;12.80;99.90
7516;DHT22;3799;47.184;8.538;2023-05-10T08:15:47;12.90;99.90
7516;DHT22;3799;47.184;8.538;2023-05-10T08:18:18;12.70;99.90
7516;DHT22;3799;47.184;8.538;2023-05-10T08:20:48;12.90;99.90
7516;DHT22;3799;47.184;8.538;2023-05-10T08:23:15;12.60;99.90
7516;DHT22;3799;47.184;8.538;2023-05-10T08:25:43;12.80;99.90
7516;DHT22;3799;47.184;8.538;2023-05-10T08:28:10;12.80;99.90
7516;DHT22;3799;47.184;8.538;2023-05-10T08:30:38;12.90;99.90
7516;DHT22;3799;47.184;8.538;2023-05-10T08:33:09;12.80;99.90
7516;DHT22;3799;47.184;8.538;2023-05-10T08:35:37;12.90;99.90
7516;DHT22;3799;47.184;8.538;2023-05-10T08:38:04;12.70;99.90
7516;DHT22;3799;47.184;8.538;2023-05-10T08:40:32;12.80;99.90
7516;DHT22;3799;47.184;8.538;2023-05-10T08:43:08;12.70;99.90
7516;DHT22;3799;47.184;8.538;2023-05-10T08:45:41;12.60;99.90
7516;DHT22;3799;47.184;8.538;2023-05-10T08:48:14;13.10;99.90
7516;DHT22;3799;47.184;8.538;2023-05-10T08:50:42;12.80;99.90
7516;DHT22;3799;47.184;8.538;2023-05-10T08:53:11;13.00;99.90
7516;DHT22;3799;47.184;8.538;2023-05-10T08:55:39;12.80;99.90
7516;DHT22;3799;47.184;8.538;2023-05-10T08:58:12;12.90;99.90
7516;DHT22;3799;47.184;8.538;2023-05-10T09:00:40;12.90;99.90
7516;DHT22;3799;47.184;8.538;2023-05-10T09:03:09;13.00;99.90
7516;DHT22;3799;47.184;8.538;2023-05-10T09:05:40;12.90;99.90
7516;DHT22;3799;47.184;8.538;2023-05-10T09:08:08;13.20;99.90
7516;DHT22;3799;47.184;8.538;2023-05-10T09:10:37;13.20;99.90
7516;DHT22;3799;47.184;8.538;2023-05-10T09:13:07;13.40;99.90
7516;DHT22;3799;47.184;8.538;2023-05-10T09:15:35;13.30;99.90
7516;DHT22;3799;47.184;8.538;2023-05-10T09:18:02;13.40;99.90
7516;DHT22;3799;47.184;8.538;2023-05-10T09:20:31;13.70;99.90
7516;DHT22;3799;47.184;8.538;2023-05-10T09:22:58;13.60;99.90
7516;DHT22;3799;47.184;8.538;2023-05-10T09:25:28;13.80;99.90
7516;DHT22;3799;47.184;8.538;2023-05-10T09:27:59;14.00;99.90
7516;DHT22;3799;47.184;8.538;2023-05-10T09:30:28;14.00;99.90
7516;DHT22;3799;47.184;8.538;2023-05-10T09:32:56;13.90;99.90
7516;DHT22;3799;47.184;8.538;2023-05-10T09:35:26;14.10;99.90
7516;DHT22;3799;47.184;8.538;2023-05-10T09:38:01;14.10;99.90
7516;DHT22;3799;47.184;8.538;2023-05-10T09:40:29;14.30;99.90
7516;DHT22;3799;47.184;8.538;2023-05-10T09:43:01;14.10;99.90
7516;DHT22;3799;47.184;8.538;2023-05-10T09:45:35;14.10;99.90
7516;DHT22;3799;47.184;8.538;2023-05-10T09:48:09;14.30;99.90
7516;DHT22;3799;47.184;8.538;2023-05-10T09:50:37;14.10;99.90
7516;DHT22;3799;47.184;8.538;2023-05-10T09:53:06;14.10;99.90
7516;DHT22;3799;47.184;8.538;2023-05-10T09:55:42;14.10;99.90
7516;DHT22;3799;47.184;8.538;2023-05-10T09:58:15;14.00;99.90
7516;DHT22;3799;47.184;8.538;2023-05-10T10:00:46;14.20;99.90
7516;DHT22;3799;47.184;8.538;2023-05-10T10:03:23;13.90;99.90
7516;DHT22;3799;47.184;8.538;2023-05-10T10:05:51;13.90;99.90
7516;DHT22;3799;47.184;8.538;2023-05-10T10:08:20;14.20;99.90
7516;DHT22;3799;47.184;8.538;2023-05-10T10:10:47;14.20;99.90
7516;DHT22;3799;47.184;8.538;2023-05-10T10:13:16;14.40;99.90
7516;DHT22;3799;47.184;8.538;2023-05-10T10:15:47;14.50;99.90
7516;DHT22;3799;47.184;8.538;2023-05-10T10:18:18;14.70;99.90
7516;DHT22;3799;47.184;8.538;2023-05-10T10:20:51;14.40;99.90
7516;DHT22;3799;47.184;8.538;2023-05-10T10:23:20;14.20;99.90
7516;DHT22;3799;47.184;8.538;2023-05-10T10:25:51;14.20;99.90
7516;DHT22;3799;47.184;8.538;2023-05-10T10:28:26;14.60;99.90
7516;DHT22;3799;47.184;8.538;2023-05-10T10:31:10;14.50;99.90
7516;DHT22;3799;47.184;8.538;2023-05-10T10:33:56;14.60;99.90
7516;DHT22;3799;47.184;8.538;2023-05-10T10:36:26;14.80;99.90
7516;DHT22;3799;47.184;8.538;2023-05-10T10:41:35;15.10;99.90
7516;DHT22;3799;47.184;8.538;2023-05-10T10:47:44;15.60;99.90
7516;DHT22;3799;47.184;8.538;2023-05-10T10:52:39;15.60;99.90
7516;DHT22;3799;47.184;8.538;2023-05-10T10:55:18;15.30;99.90
7516;DHT22;3799;47.184;8.538;2023-05-10T10:57:53;15.50;99.90
7516;DHT22;3799;47.184;8.538;2023-05-10T11:00:31;15.40;99.90
7516;DHT22;3799;47.184;8.538;2023-05-10T11:03:19;15.40;99.90
7516;DHT22;3799;47.184;8.538;2023-05-10T11:05:49;15.30;99.90
7516;DHT22;3799;47.184;8.538;2023-05-10T11:13:32;15.60;99.90
7516;DHT22;3799;47.184;8.538;2023-05-10T11:16:14;15.80;99.90
7516;DHT22;3799;47.184;8.538;2023-05-10T11:21:25;15.90;99.90
7516;DHT22;3799;47.184;8.538;2023-05-10T11:23:57;15.60;99.90
7516;DHT22;3799;47.184;8.538;2023-05-10T11:26:32;15.80;99.90
7516;DHT22;3799;47.184;8.538;2023-05-10T11:29:02;15.50;99.90
7516;DHT22;3799;47.184;8.538;2023-05-10T11:31:32;15.40;99.90
7516;DHT22;3799;47.184;8.538;2023-05-10T11:34:04;15.20;99.90
7516;DHT22;3799;47.184;8.538;2023-05-10T11:36:36;15.20;99.90
7516;DHT22;3799;47.184;8.538;2023-05-10T11:39:05;15.00;99.90
7516;DHT22;3799;47.184;8.538;2023-05-10T11:41:33;14.60;99.90
7516;DHT22;3799;47.184;8.538;2023-05-10T11:44:01;14.70;99.90
7516;DHT22;3799;47.184;8.538;2023-05-10T11:46:29;14.80;99.90
7516;DHT22;3799;47.184;8.538;2023-05-10T11:49:02;14.50;99.90
7516;DHT22;3799;47.184;8.538;2023-05-10T11:51:34;14.60;99.90
7516;DHT22;3799;47.184;8.538;2023-05-10T11:54:08;14.80;99.90
7516;DHT22;3799;47.184;8.538;2023-05-10T11:56:40;15.00;99.90
7516;DHT22;3799;47.184;8.538;2023-05-10T11:59:10;15.00;99.90
7516;DHT22;3799;47.184;8.538;2023-05-10T12:01:38;15.20;99.90
7516;DHT22;3799;47.184;8.538;2023-05-10T12:04:05;15.20;99.90
7516;DHT22;3799;47.184;8.538;2023-05-10T12:06:40;15.40;99.90
7516;DHT22;3799;47.184;8.538;2023-05-10T12:09:11;15.10;99.90
7516;DHT22;3799;47.184;8.538;2023-05-10T12:11:40;14.60;99.90
7516;DHT22;3799;47.184;8.538;2023-05-10T12:14:10;14.70;99.90
7516;DHT22;3799;47.184;8.538;2023-05-10T12:16:38;14.60;99.90
7516;DHT22;3799;47.184;8.538;2023-05-10T12:19:09;14.60;99.90
7516;DHT22;3799;47.184;8.538;2023-05-10T12:21:36;14.40;99.90
7516;DHT22;3799;47.184;8.538;2023-05-10T12:24:10;14.90;99.90
7516;DHT22;3799;47.184;8.538;2023-05-10T12:26:38;14.50;99.90
7516;DHT22;3799;47.184;8.538;2023-05-10T12:29:16;14.50;99.90
7516;DHT22;3799;47.184;8.538;2023-05-10T12:31:55;14.90;99.90
7516;DHT22;3799;47.184;8.538;2023-05-10T12:34:31;14.70;99.90
7516;DHT22;3799;47.184;8.538;2023-05-10T12:36:59;14.70;99.90
7516;DHT22;3799;47.184;8.538;2023-05-10T12:39:40;14.70;99.90
7516;DHT22;3799;47.184;8.538;2023-05-10T12:42:11;14.50;99.90
7516;DHT22;3799;47.184;8.538;2023-05-10T12:44:42;14.60;99.90
7516;DHT22;3799;47.184;8.538;2023-05-10T12:47:10;14.50;99.90
7516;DHT22;3799;47.184;8.538;2023-05-10T12:49:38;14.40;99.90
7516;DHT22;3799;47.184;8.538;2023-05-10T12:52:05;14.50;99.90
7516;DHT22;3799;47.184;8.538;2023-05-10T12:54:33;14.30;99.90
7516;DHT22;3799;47.184;8.538;2023-05-10T12:57:00;14.30;99.90
7516;DHT22;3799;47.184;8.538;2023-05-10T12:59:28;14.50;99.90
7516;DHT22;3799;47.184;8.538;2023-05-10T13:01:57;14.50;99.90
7516;DHT22;3799;47.184;8.538;2023-05-10T13:04:25;14.60;99.90
7516;DHT22;3799;47.184;8.538;2023-05-10T13:06:52;14.70;99.90
7516;DHT22;3799;47.184;8.538;2023-05-10T13:09:26;14.70;99.90
7516;DHT22;3799;47.184;8.538;2023-05-10T13:11:58;14.80;99.90
7516;DHT22;3799;47.184;8.538;2023-05-10T13:14:29;15.20;99.90
7516;DHT22;3799;47.184;8.538;2023-05-10T13:17:01;15.40;99.90
7516;DHT22;3799;47.184;8.538;2023-05-10T13:19:29;15.50;99.90
7516;DHT22;3799;47.184;8.538;2023-05-10T13:22:00;16.30;99.90
7516;DHT22;3799;47.184;8.538;2023-05-10T13:24:31;16.40;99.90
7516;DHT22;3799;47.184;8.538;2023-05-10T13:26:58;16.70;99.90
7516;DHT22;3799;47.184;8.538;2023-05-10T13:29:28;17.10;99.90
7516;DHT22;3799;47.184;8.538;2023-05-10T13:31:55;17.30;99.90
7516;DHT22;3799;47.184;8.538;2023-05-10T13:34:23;17.30;99.90
7516;DHT22;3799;47.184;8.538;2023-05-10T13:36:51;17.00;99.90
7516;DHT22;3799;47.184;8.538;2023-05-10T13:39:23;16.70;99.90
7516;DHT22;3799;47.184;8.538;2023-05-10T13:41:51;16.50;99.90
7516;DHT22;3799;47.184;8.538;2023-05-10T13:44:20;16.20;99.90
7516;DHT22;3799;47.184;8.538;2023-05-10T13:46:50;15.80;99.90
7516;DHT22;3799;47.184;8.538;2023-05-10T13:49:19;15.40;99.90
7516;DHT22;3799;47.184;8.538;2023-05-10T13:51:48;14.90;99.90
7516;DHT22;3799;47.184;8.538;2023-05-10T13:54:16;14.60;99.90
7516;DHT22;3799;47.184;8.538;2023-05-10T13:56:46;14.90;99.90
7516;DHT22;3799;47.184;8.538;2023-05-10T13:59:14;14.70;99.90
7516;DHT22;3799;47.184;8.538;2023-05-10T14:01:42;14.60;99.90
7516;DHT22;3799;47.184;8.538;2023-05-10T14:04:10;15.00;99.90
7516;DHT22;3799;47.184;8.538;2023-05-10T14:06:40;15.30;99.90
7516;DHT22;3799;47.184;8.538;2023-05-10T14:09:10;16.00;99.90
7516;DHT22;3799;47.184;8.538;2023-05-10T14:11:38;16.00;99.90
7516;DHT22;3799;47.184;8.538;2023-05-10T14:14:15;16.50;99.90
7516;DHT22;3799;47.184;8.538;2023-05-10T14:16:43;17.20;99.90
7516;DHT22;3799;47.184;8.538;2023-05-10T14:19:12;17.20;99.90
7516;DHT22;3799;47.184;8.538;2023-05-10T14:21:40;17.80;99.90
7516;DHT22;3799;47.184;8.538;2023-05-10T14:24:07;18.20;99.90
7516;DHT22;3799;47.184;8.538;2023-05-10T14:26:37;18.30;99.90
7516;DHT22;3799;47.184;8.538;2023-05-10T14:29:05;18.70;99.90
7516;DHT22;3799;47.184;8.538;2023-05-10T14:31:34;18.70;99.90
7516;DHT22;3799;47.184;8.538;2023-05-10T14:34:02;19.30;95.00
7516;DHT22;3799;47.184;8.538;2023-05-10T14:36:33;19.50;78.90
7516;DHT22;3799;47.184;8.538;2023-05-10T14:39:03;18.80;76.30
7516;DHT22;3799;47.184;8.538;2023-05-10T14:41:35;19.00;76.10
7516;DHT22;3799;47.184;8.538;2023-05-10T14:44:03;19.00;76.70
7516;DHT22;3799;47.184;8.538;2023-05-10T14:46:30;18.90;75.70
7516;DHT22;3799;47.184;8.538;2023-05-10T14:48:58;19.00;73.10
7516;DHT22;3799;47.184;8.538;2023-05-10T14:51:26;19.00;75.10
7516;DHT22;3799;47.184;8.538;2023-05-10T14:53:54;18.80;74.20
7516;DHT22;3799;47.184;8.538;2023-05-10T14:56:23;19.00;76.00
7516;DHT22;3799;47.184;8.538;2023-05-10T14:58:51;18.90;77.10
7516;DHT22;3799;47.184;8.538;2023-05-10T15:01:19;18.90;74.30
7516;DHT22;3799;47.184;8.538;2023-05-10T15:03:47;18.90;75.50
7516;DHT22;3799;47.184;8.538;2023-05-10T15:06:17;18.80;74.00
7516;DHT22;3799;47.184;8.538;2023-05-10T15:08:50;18.60;72.80
7516;DHT22;3799;47.184;8.538;2023-05-10T15:11:17;18.30;72.10
7516;DHT22;3799;47.184;8.538;2023-05-10T15:13:45;18.20;75.20
7516;DHT22;3799;47.184;8.538;2023-05-10T15:16:13;17.80;75.90
7516;DHT22;3799;47.184;8.538;2023-05-10T15:18:43;17.20;77.50
7516;DHT22;3799;47.184;8.538;2023-05-10T15:21:11;17.20;80.90
7516;DHT22;3799;47.184;8.538;2023-05-10T15:23:41;16.60;86.90
7516;DHT22;3799;47.184;8.538;2023-05-10T15:26:11;16.50;92.60
7516;DHT22;3799;47.184;8.538;2023-05-10T15:28:39;16.40;97.50
7516;DHT22;3799;47.184;8.538;2023-05-10T15:31:07;16.30;99.90
7516;DHT22;3799;47.184;8.538;2023-05-10T15:33:37;15.90;99.90
7516;DHT22;3799;47.184;8.538;2023-05-10T15:36:06;15.60;99.90
7516;DHT22;3799;47.184;8.538;2023-05-10T15:38:34;15.70;99.90
7516;DHT22;3799;47.184;8.538;2023-05-10T15:41:02;15.70;99.90
7516;DHT22;3799;47.184;8.538;2023-05-10T15:43:32;15.50;99.90
7516;DHT22;3799;47.184;8.538;2023-05-10T15:46:02;15.70;99.90
7516;DHT22;3799;47.184;8.538;2023-05-10T15:48:29;15.40;99.90
7516;DHT22;3799;47.184;8.538;2023-05-10T15:50:58;15.70;99.90
7516;DHT22;3799;47.184;8.538;2023-05-10T15:53:33;15.50;99.90
7516;DHT22;3799;47.184;8.538;2023-05-10T15:56:01;15.40;99.90
7516;DHT22;3799;47.184;8.538;2023-05-10T15:58:37;15.30;99.90
7516;DHT22;3799;47.184;8.538;2023-05-10T16:01:04;15.00;99.90
7516;DHT22;3799;47.184;8.538;2023-05-10T16:03:33;15.00;99.90
7516;DHT22;3799;47.184;8.538;2023-05-10T16:06:03;14.60;99.90
7516;DHT22;3799;47.184;8.538;2023-05-10T16:08:31;14.00;99.90
7516;DHT22;3799;47.184;8.538;2023-05-10T16:11:00;13.50;99.90
7516;DHT22;3799;47.184;8.538;2023-05-10T16:13:29;13.20;99.90
7516;DHT22;3799;47.184;8.538;2023-05-10T16:15:57;13.10;99.90
7516;DHT22;3799;47.184;8.538;2023-05-10T16:18:24;13.20;99.90
7516;DHT22;3799;47.184;8.538;2023-05-10T16:20:52;13.10;99.90
7516;DHT22;3799;47.184;8.538;2023-05-10T16:23:23;13.10;99.90
7516;DHT22;3799;47.184;8.538;2023-05-10T16:25:53;13.00;99.90
7516;DHT22;3799;47.184;8.538;2023-05-10T16:28:20;13.20;99.90
7516;DHT22;3799;47.184;8.538;2023-05-10T16:30:48;13.30;99.90
7516;DHT22;3799;47.184;8.538;2023-05-10T16:33:15;13.10;99.90
7516;DHT22;3799;47.184;8.538;2023-05-10T16:35:43;13.30;99.90
7516;DHT22;3799;47.184;8.538;2023-05-10T16:38:10;13.20;99.90
7516;DHT22;3799;47.184;8.538;2023-05-10T16:40:37;13.30;99.90
7516;DHT22;3799;47.184;8.538;2023-05-10T16:43:05;13.30;99.90
7516;DHT22;3799;47.184;8.538;2023-05-10T16:45:33;13.50;99.90
7516;DHT22;3799;47.184;8.538;2023-05-10T16:48:01;13.30;99.90